<?xml version="1.0" encoding="UTF-8" standalone="no" ?>
<gpx xmlns="http://www.topografix.com/GPX/1/1" xmlns:xsi="http://www.w3.org/2001/XMLSchema-instance" xsi:schemaLocation="http://www.topografix.com/GPX/1/1 http://www.topografix.com/GPX/1/1/gpx.xsd" version="1.1" creator="VisuGPX - https://www.visugpx.com">
  <metadata>
    <name>Lac des Bouillouses - circuit des 12 lacs</name>
    <desc><![CDATA[2016-04 - Lac des Bouillouses - circuit des 12 lacs sous la neige

[b]album[/b] : [url]https://goo.gl/photos/P5cQxmu8A34ywN5P7[/url]
[img]https://1.bp.blogspot.com/-B5ZwNzC8wr4/WNF8xmoVrLI/AAAAAAAAREM/2Xj3tVyc8BYqAfCacl91vA2AXOUK2AR3QCLcB/s1600/2016-03_lac-Bouillouses_i.JPG[/img]
[b]Idées de randonnées dans la même région[/b]
Parcours : [url]https://www.visugpx.com/membres/24856/montagne/pyrenees/[/url]
Photos : [url]https://jcvertygo.blogspot.com/p/pyrenees.html[/url]]]></desc>
  </metadata>
  <trk>
    <name><![CDATA[Lac des Bouillouses - circuit des 12 lacs_1]]></name>
    <trkseg>
      <trkpt lat="42.55933" lon="2.00038">
        <ele>2020.9</ele>
        <time>2016-04-18T07:59:11Z</time>
      </trkpt>
      <trkpt lat="42.55918" lon="2.00009">
        <ele>2063.5963583164</ele>
        <time>2016-04-18T07:59:52Z</time>
      </trkpt>
      <trkpt lat="42.55922" lon="2.00017">
        <ele>2063.5963583164</ele>
        <time>2016-04-18T08:00:45Z</time>
      </trkpt>
      <trkpt lat="42.55919" lon="2.00017">
        <ele>2069.1872028418</ele>
        <time>2016-04-18T08:00:50Z</time>
      </trkpt>
      <trkpt lat="42.55909" lon="2.00015">
        <ele>2076.9775495905</ele>
        <time>2016-04-18T08:01:14Z</time>
      </trkpt>
      <trkpt lat="42.55886" lon="2.00014">
        <ele>2077.394722077</ele>
        <time>2016-04-18T08:01:49Z</time>
      </trkpt>
      <trkpt lat="42.55885" lon="2.00013">
        <ele>2077.394722077</ele>
        <time>2016-04-18T08:01:50Z</time>
      </trkpt>
      <trkpt lat="42.55879" lon="2.00007">
        <ele>2077.394722077</ele>
        <time>2016-04-18T08:01:55Z</time>
      </trkpt>
      <trkpt lat="42.55877" lon="2.00004">
        <ele>2080.5433694662</ele>
        <time>2016-04-18T08:02:00Z</time>
      </trkpt>
      <trkpt lat="42.55873" lon="1.99971">
        <ele>2084.6641700076</ele>
        <time>2016-04-18T08:02:26Z</time>
      </trkpt>
      <trkpt lat="42.5589" lon="1.99954">
        <ele>2088.6773237434</ele>
        <time>2016-04-18T08:02:57Z</time>
      </trkpt>
      <trkpt lat="42.5596" lon="1.99894">
        <ele>2091.1946804076</ele>
        <time>2016-04-18T08:04:06Z</time>
      </trkpt>
      <trkpt lat="42.55963" lon="1.99892">
        <ele>2091.1946804076</ele>
        <time>2016-04-18T08:04:06Z</time>
      </trkpt>
      <trkpt lat="42.55982" lon="1.99859">
        <ele>2092.4774003408</ele>
        <time>2016-04-18T08:04:45Z</time>
      </trkpt>
      <trkpt lat="42.55985" lon="1.99858">
        <ele>2092.4774003408</ele>
        <time>2016-04-18T08:04:50Z</time>
      </trkpt>
      <trkpt lat="42.5599" lon="1.99852">
        <ele>2092.4657362812</ele>
        <time>2016-04-18T08:05:00Z</time>
      </trkpt>
      <trkpt lat="42.55993" lon="1.99849">
        <ele>2092.4657362812</ele>
        <time>2016-04-18T08:05:05Z</time>
      </trkpt>
      <trkpt lat="42.56004" lon="1.99738">
        <ele>2091.6627240808</ele>
        <time>2016-04-18T08:07:00Z</time>
      </trkpt>
      <trkpt lat="42.55998" lon="1.99597">
        <ele>2091.5549581186</ele>
        <time>2016-04-18T08:09:00Z</time>
      </trkpt>
      <trkpt lat="42.56" lon="1.99594">
        <ele>2091.5549581186</ele>
        <time>2016-04-18T08:09:05Z</time>
      </trkpt>
      <trkpt lat="42.56018" lon="1.99523">
        <ele>2090.5800955973</ele>
        <time>2016-04-18T08:10:26Z</time>
      </trkpt>
      <trkpt lat="42.5602" lon="1.99514">
        <ele>2090.5800955973</ele>
        <time>2016-04-18T08:10:31Z</time>
      </trkpt>
      <trkpt lat="42.56024" lon="1.99511">
        <ele>2088.7350783105</ele>
        <time>2016-04-18T08:10:56Z</time>
      </trkpt>
      <trkpt lat="42.56035" lon="1.995">
        <ele>2086.495127905</ele>
        <time>2016-04-18T08:11:12Z</time>
      </trkpt>
      <trkpt lat="42.56042" lon="1.99493">
        <ele>2086.495127905</ele>
        <time>2016-04-18T08:11:12Z</time>
      </trkpt>
      <trkpt lat="42.56039" lon="1.99488">
        <ele>2084.0693870109</ele>
        <time>2016-04-18T08:11:29Z</time>
      </trkpt>
      <trkpt lat="42.56037" lon="1.99488">
        <ele>2084.0693870109</ele>
        <time>2016-04-18T08:11:29Z</time>
      </trkpt>
      <trkpt lat="42.56034" lon="1.99457">
        <ele>2081.8586682296</ele>
        <time>2016-04-18T08:11:57Z</time>
      </trkpt>
      <trkpt lat="42.56035" lon="1.99451">
        <ele>2081.8586682296</ele>
        <time>2016-04-18T08:12:19Z</time>
      </trkpt>
      <trkpt lat="42.56031" lon="1.99431">
        <ele>2080.1648062197</ele>
        <time>2016-04-18T08:13:01Z</time>
      </trkpt>
      <trkpt lat="42.56027" lon="1.99414">
        <ele>2079.0398180215</ele>
        <time>2016-04-18T08:13:25Z</time>
      </trkpt>
      <trkpt lat="42.56024" lon="1.9941">
        <ele>2079.0398180215</ele>
        <time>2016-04-18T08:13:44Z</time>
      </trkpt>
      <trkpt lat="42.56019" lon="1.99389">
        <ele>2079.4984741474</ele>
        <time>2016-04-18T08:14:10Z</time>
      </trkpt>
      <trkpt lat="42.56016" lon="1.99383">
        <ele>2079.4984741474</ele>
        <time>2016-04-18T08:14:42Z</time>
      </trkpt>
      <trkpt lat="42.56016" lon="1.99382">
        <ele>2079.4984741474</ele>
        <time>2016-04-18T08:14:42Z</time>
      </trkpt>
      <trkpt lat="42.56009" lon="1.99317">
        <ele>2080.4729028498</ele>
        <time>2016-04-18T08:16:17Z</time>
      </trkpt>
      <trkpt lat="42.56007" lon="1.99272">
        <ele>2081.2961361176</ele>
        <time>2016-04-18T08:17:03Z</time>
      </trkpt>
      <trkpt lat="42.5601" lon="1.99239">
        <ele>2082.1011663858</ele>
        <time>2016-04-18T08:17:43Z</time>
      </trkpt>
      <trkpt lat="42.56009" lon="1.99239">
        <ele>2082.1011663858</ele>
        <time>2016-04-18T08:17:44Z</time>
      </trkpt>
      <trkpt lat="42.56006" lon="1.99232">
        <ele>2082.1011663858</ele>
        <time>2016-04-18T08:18:13Z</time>
      </trkpt>
      <trkpt lat="42.56044" lon="1.9903">
        <ele>2084.8017173468</ele>
        <time>2016-04-18T08:22:05Z</time>
      </trkpt>
      <trkpt lat="42.56048" lon="1.99024">
        <ele>2084.8017173468</ele>
        <time>2016-04-18T08:22:08Z</time>
      </trkpt>
      <trkpt lat="42.56102" lon="1.98985">
        <ele>2087.8656816315</ele>
        <time>2016-04-18T08:23:51Z</time>
      </trkpt>
      <trkpt lat="42.56112" lon="1.98951">
        <ele>2091.1087177054</ele>
        <time>2016-04-18T08:24:35Z</time>
      </trkpt>
      <trkpt lat="42.56113" lon="1.98938">
        <ele>2093.8682361784</ele>
        <time>2016-04-18T08:24:57Z</time>
      </trkpt>
      <trkpt lat="42.56116" lon="1.98935">
        <ele>2093.8682361784</ele>
        <time>2016-04-18T08:24:57Z</time>
      </trkpt>
      <trkpt lat="42.56117" lon="1.98934">
        <ele>2093.8682361784</ele>
        <time>2016-04-18T08:25:00Z</time>
      </trkpt>
      <trkpt lat="42.56119" lon="1.98927">
        <ele>2096.1583426702</ele>
        <time>2016-04-18T08:25:17Z</time>
      </trkpt>
      <trkpt lat="42.56122" lon="1.9892">
        <ele>2096.1583426702</ele>
        <time>2016-04-18T08:25:17Z</time>
      </trkpt>
      <trkpt lat="42.56131" lon="1.98903">
        <ele>2098.2832943971</ele>
        <time>2016-04-18T08:25:51Z</time>
      </trkpt>
      <trkpt lat="42.56197" lon="1.98826">
        <ele>2101.3672668596</ele>
        <time>2016-04-18T08:28:00Z</time>
      </trkpt>
      <trkpt lat="42.56211" lon="1.98806">
        <ele>2103.9918445814</ele>
        <time>2016-04-18T08:28:25Z</time>
      </trkpt>
      <trkpt lat="42.56229" lon="1.98789">
        <ele>2106.0762812355</ele>
        <time>2016-04-18T08:28:57Z</time>
      </trkpt>
      <trkpt lat="42.56232" lon="1.98785">
        <ele>2106.0762812355</ele>
        <time>2016-04-18T08:29:10Z</time>
      </trkpt>
      <trkpt lat="42.56257" lon="1.98749">
        <ele>2108.6269213777</ele>
        <time>2016-04-18T08:30:13Z</time>
      </trkpt>
      <trkpt lat="42.56262" lon="1.98742">
        <ele>2108.6269213777</ele>
        <time>2016-04-18T08:30:20Z</time>
      </trkpt>
      <trkpt lat="42.5628" lon="1.98724">
        <ele>2111.1488907137</ele>
        <time>2016-04-18T08:31:01Z</time>
      </trkpt>
      <trkpt lat="42.56302" lon="1.98695">
        <ele>2113.2644878012</ele>
        <time>2016-04-18T08:31:56Z</time>
      </trkpt>
      <trkpt lat="42.56315" lon="1.9869">
        <ele>2115.264039742</ele>
        <time>2016-04-18T08:31:58Z</time>
      </trkpt>
      <trkpt lat="42.56319" lon="1.98684">
        <ele>2115.264039742</ele>
        <time>2016-04-18T08:32:20Z</time>
      </trkpt>
      <trkpt lat="42.56326" lon="1.98682">
        <ele>2117.281678896</ele>
        <time>2016-04-18T08:32:25Z</time>
      </trkpt>
      <trkpt lat="42.56336" lon="1.98662">
        <ele>2119.7292790075</ele>
        <time>2016-04-18T08:32:57Z</time>
      </trkpt>
      <trkpt lat="42.56357" lon="1.98609">
        <ele>2122.9410407773</ele>
        <time>2016-04-18T08:34:21Z</time>
      </trkpt>
      <trkpt lat="42.56384" lon="1.98591">
        <ele>2126.097937428</ele>
        <time>2016-04-18T08:35:08Z</time>
      </trkpt>
      <trkpt lat="42.56405" lon="1.98574">
        <ele>2129.1313378605</ele>
        <time>2016-04-18T08:35:47Z</time>
      </trkpt>
      <trkpt lat="42.56411" lon="1.9857">
        <ele>2129.1313378605</ele>
        <time>2016-04-18T08:35:48Z</time>
      </trkpt>
      <trkpt lat="42.56417" lon="1.98561">
        <ele>2131.8312148098</ele>
        <time>2016-04-18T08:36:00Z</time>
      </trkpt>
      <trkpt lat="42.56435" lon="1.98537">
        <ele>2134.5280703717</ele>
        <time>2016-04-18T08:36:32Z</time>
      </trkpt>
      <trkpt lat="42.56436" lon="1.98515">
        <ele>2137.09285422</ele>
        <time>2016-04-18T08:36:54Z</time>
      </trkpt>
      <trkpt lat="42.56437" lon="1.98513">
        <ele>2137.09285422</ele>
        <time>2016-04-18T08:36:55Z</time>
      </trkpt>
      <trkpt lat="42.56439" lon="1.98493">
        <ele>2139.5230778135</ele>
        <time>2016-04-18T08:37:23Z</time>
      </trkpt>
      <trkpt lat="42.56432" lon="1.98468">
        <ele>2141.7427724748</ele>
        <time>2016-04-18T08:38:47Z</time>
      </trkpt>
      <trkpt lat="42.56431" lon="1.98463">
        <ele>2141.7427724748</ele>
        <time>2016-04-18T08:38:47Z</time>
      </trkpt>
      <trkpt lat="42.56429" lon="1.98452">
        <ele>2143.6967089162</ele>
        <time>2016-04-18T08:39:08Z</time>
      </trkpt>
      <trkpt lat="42.56428" lon="1.98444">
        <ele>2143.6967089162</ele>
        <time>2016-04-18T08:39:09Z</time>
      </trkpt>
      <trkpt lat="42.56421" lon="1.98422">
        <ele>2145.9048537748</ele>
        <time>2016-04-18T08:40:50Z</time>
      </trkpt>
      <trkpt lat="42.5639" lon="1.98428">
        <ele>2148.3401321014</ele>
        <time>2016-04-18T08:42:46Z</time>
      </trkpt>
      <trkpt lat="42.56383" lon="1.98425">
        <ele>2148.3401321014</ele>
        <time>2016-04-18T08:43:06Z</time>
      </trkpt>
      <trkpt lat="42.56378" lon="1.98425">
        <ele>2150.5083604886</ele>
        <time>2016-04-18T08:43:27Z</time>
      </trkpt>
      <trkpt lat="42.56376" lon="1.98425">
        <ele>2150.5083604886</ele>
        <time>2016-04-18T08:43:30Z</time>
      </trkpt>
      <trkpt lat="42.5636" lon="1.98428">
        <ele>2152.2832471527</ele>
        <time>2016-04-18T08:44:00Z</time>
      </trkpt>
      <trkpt lat="42.56356" lon="1.98426">
        <ele>2152.2832471527</ele>
        <time>2016-04-18T08:44:03Z</time>
      </trkpt>
      <trkpt lat="42.56313" lon="1.98433">
        <ele>2153.7459024647</ele>
        <time>2016-04-18T08:45:00Z</time>
      </trkpt>
      <trkpt lat="42.563" lon="1.98459">
        <ele>2154.6557218924</ele>
        <time>2016-04-18T08:46:26Z</time>
      </trkpt>
      <trkpt lat="42.5627" lon="1.98481">
        <ele>2155.2456458785</ele>
        <time>2016-04-18T08:49:30Z</time>
      </trkpt>
      <trkpt lat="42.5627" lon="1.9848">
        <ele>2155.2456458785</ele>
        <time>2016-04-18T08:49:35Z</time>
      </trkpt>
      <trkpt lat="42.56272" lon="1.98477">
        <ele>2155.2456458785</ele>
        <time>2016-04-18T08:49:55Z</time>
      </trkpt>
      <trkpt lat="42.56274" lon="1.98474">
        <ele>2155.2456458785</ele>
        <time>2016-04-18T08:50:03Z</time>
      </trkpt>
      <trkpt lat="42.5628" lon="1.98468">
        <ele>2155.4902522976</ele>
        <time>2016-04-18T08:50:10Z</time>
      </trkpt>
      <trkpt lat="42.56282" lon="1.98467">
        <ele>2155.4902522976</ele>
        <time>2016-04-18T08:50:15Z</time>
      </trkpt>
      <trkpt lat="42.56291" lon="1.98459">
        <ele>2155.48760753</ele>
        <time>2016-04-18T08:50:31Z</time>
      </trkpt>
      <trkpt lat="42.56296" lon="1.98453">
        <ele>2155.48760753</ele>
        <time>2016-04-18T08:50:31Z</time>
      </trkpt>
      <trkpt lat="42.56322" lon="1.9837">
        <ele>2155.3132827655</ele>
        <time>2016-04-18T08:51:54Z</time>
      </trkpt>
      <trkpt lat="42.56319" lon="1.98352">
        <ele>2154.7368058613</ele>
        <time>2016-04-18T08:52:52Z</time>
      </trkpt>
      <trkpt lat="42.56325" lon="1.98324">
        <ele>2153.9069553555</ele>
        <time>2016-04-18T08:53:17Z</time>
      </trkpt>
      <trkpt lat="42.5634" lon="1.98304">
        <ele>2152.8559179364</ele>
        <time>2016-04-18T08:54:05Z</time>
      </trkpt>
      <trkpt lat="42.56346" lon="1.98302">
        <ele>2152.8559179364</ele>
        <time>2016-04-18T08:54:20Z</time>
      </trkpt>
      <trkpt lat="42.56346" lon="1.98302">
        <ele>2152.8559179364</ele>
        <time>2016-04-18T08:54:28Z</time>
      </trkpt>
      <trkpt lat="42.56342" lon="1.98296">
        <ele>2151.881474736</ele>
        <time>2016-04-18T08:54:53Z</time>
      </trkpt>
      <trkpt lat="42.56329" lon="1.98288">
        <ele>2151.0921943686</ele>
        <time>2016-04-18T08:55:20Z</time>
      </trkpt>
      <trkpt lat="42.56327" lon="1.98286">
        <ele>2151.0921943686</ele>
        <time>2016-04-18T08:55:28Z</time>
      </trkpt>
      <trkpt lat="42.56319" lon="1.98285">
        <ele>2150.4087014088</ele>
        <time>2016-04-18T08:55:55Z</time>
      </trkpt>
      <trkpt lat="42.56321" lon="1.98277">
        <ele>2150.4087014088</ele>
        <time>2016-04-18T08:56:15Z</time>
      </trkpt>
      <trkpt lat="42.56321" lon="1.98273">
        <ele>2150.3637317242</ele>
        <time>2016-04-18T08:56:20Z</time>
      </trkpt>
      <trkpt lat="42.5632" lon="1.98269">
        <ele>2150.3637317242</ele>
        <time>2016-04-18T08:56:25Z</time>
      </trkpt>
      <trkpt lat="42.5632" lon="1.98265">
        <ele>2150.3637317242</ele>
        <time>2016-04-18T08:56:30Z</time>
      </trkpt>
      <trkpt lat="42.56317" lon="1.9825">
        <ele>2150.8829872108</ele>
        <time>2016-04-18T08:56:51Z</time>
      </trkpt>
      <trkpt lat="42.56318" lon="1.98242">
        <ele>2150.8829872108</ele>
        <time>2016-04-18T08:57:00Z</time>
      </trkpt>
      <trkpt lat="42.56319" lon="1.9824">
        <ele>2150.8829872108</ele>
        <time>2016-04-18T08:57:34Z</time>
      </trkpt>
      <trkpt lat="42.56323" lon="1.9824">
        <ele>2151.6760606927</ele>
        <time>2016-04-18T08:58:07Z</time>
      </trkpt>
      <trkpt lat="42.56328" lon="1.98237">
        <ele>2151.6760606927</ele>
        <time>2016-04-18T08:58:07Z</time>
      </trkpt>
      <trkpt lat="42.56332" lon="1.98233">
        <ele>2152.3143753774</ele>
        <time>2016-04-18T08:58:17Z</time>
      </trkpt>
      <trkpt lat="42.56335" lon="1.98232">
        <ele>2152.3143753774</ele>
        <time>2016-04-18T08:58:20Z</time>
      </trkpt>
      <trkpt lat="42.56341" lon="1.98213">
        <ele>2153.0933560359</ele>
        <time>2016-04-18T08:59:03Z</time>
      </trkpt>
      <trkpt lat="42.56354" lon="1.98214">
        <ele>2154.0644062742</ele>
        <time>2016-04-18T09:00:09Z</time>
      </trkpt>
      <trkpt lat="42.56367" lon="1.98204">
        <ele>2155.1282397898</ele>
        <time>2016-04-18T09:00:40Z</time>
      </trkpt>
      <trkpt lat="42.5638" lon="1.98202">
        <ele>2156.0184431519</ele>
        <time>2016-04-18T09:01:22Z</time>
      </trkpt>
      <trkpt lat="42.56413" lon="1.98195">
        <ele>2156.7664793267</ele>
        <time>2016-04-18T09:02:20Z</time>
      </trkpt>
      <trkpt lat="42.56408" lon="1.98196">
        <ele>2156.7664793267</ele>
        <time>2016-04-18T09:02:28Z</time>
      </trkpt>
      <trkpt lat="42.56409" lon="1.98194">
        <ele>2156.7664793267</ele>
        <time>2016-04-18T09:02:37Z</time>
      </trkpt>
      <trkpt lat="42.56424" lon="1.98181">
        <ele>2157.6192516879</ele>
        <time>2016-04-18T09:02:58Z</time>
      </trkpt>
      <trkpt lat="42.56426" lon="1.9818">
        <ele>2157.6192516879</ele>
        <time>2016-04-18T09:03:00Z</time>
      </trkpt>
      <trkpt lat="42.56427" lon="1.9818">
        <ele>2157.6192516879</ele>
        <time>2016-04-18T09:03:05Z</time>
      </trkpt>
      <trkpt lat="42.56436" lon="1.98159">
        <ele>2158.6297148461</ele>
        <time>2016-04-18T09:03:39Z</time>
      </trkpt>
      <trkpt lat="42.56471" lon="1.98151">
        <ele>2159.7592347804</ele>
        <time>2016-04-18T09:04:29Z</time>
      </trkpt>
      <trkpt lat="42.56481" lon="1.98149">
        <ele>2161.0006936857</ele>
        <time>2016-04-18T09:05:05Z</time>
      </trkpt>
      <trkpt lat="42.56483" lon="1.98148">
        <ele>2161.0006936857</ele>
        <time>2016-04-18T09:05:09Z</time>
      </trkpt>
      <trkpt lat="42.5652" lon="1.98118">
        <ele>2162.2024828185</ele>
        <time>2016-04-18T09:06:25Z</time>
      </trkpt>
      <trkpt lat="42.5652" lon="1.98114">
        <ele>2162.2024828185</ele>
        <time>2016-04-18T09:06:30Z</time>
      </trkpt>
      <trkpt lat="42.56519" lon="1.98113">
        <ele>2162.2024828185</ele>
        <time>2016-04-18T09:06:44Z</time>
      </trkpt>
      <trkpt lat="42.56509" lon="1.98063">
        <ele>2163.3112356528</ele>
        <time>2016-04-18T09:07:47Z</time>
      </trkpt>
      <trkpt lat="42.56506" lon="1.98038">
        <ele>2164.3354576908</ele>
        <time>2016-04-18T09:08:03Z</time>
      </trkpt>
      <trkpt lat="42.56505" lon="1.98037">
        <ele>2164.3354576908</ele>
        <time>2016-04-18T09:08:04Z</time>
      </trkpt>
      <trkpt lat="42.56505" lon="1.98036">
        <ele>2164.3354576908</ele>
        <time>2016-04-18T09:08:04Z</time>
      </trkpt>
      <trkpt lat="42.56493" lon="1.97988">
        <ele>2165.2686017488</ele>
        <time>2016-04-18T09:08:45Z</time>
      </trkpt>
      <trkpt lat="42.56492" lon="1.97982">
        <ele>2165.2686017488</ele>
        <time>2016-04-18T09:08:50Z</time>
      </trkpt>
      <trkpt lat="42.56456" lon="1.97915">
        <ele>2166.2345406561</ele>
        <time>2016-04-18T09:10:22Z</time>
      </trkpt>
      <trkpt lat="42.5646" lon="1.97908">
        <ele>2166.2345406561</ele>
        <time>2016-04-18T09:11:03Z</time>
      </trkpt>
      <trkpt lat="42.56459" lon="1.97906">
        <ele>2166.2345406561</ele>
        <time>2016-04-18T09:11:03Z</time>
      </trkpt>
      <trkpt lat="42.56461" lon="1.97891">
        <ele>2166.6696154505</ele>
        <time>2016-04-18T09:11:23Z</time>
      </trkpt>
      <trkpt lat="42.56461" lon="1.97887">
        <ele>2166.6696154505</ele>
        <time>2016-04-18T09:11:25Z</time>
      </trkpt>
      <trkpt lat="42.56466" lon="1.97873">
        <ele>2166.9620240503</ele>
        <time>2016-04-18T09:11:45Z</time>
      </trkpt>
      <trkpt lat="42.56469" lon="1.97864">
        <ele>2166.9620240503</ele>
        <time>2016-04-18T09:11:45Z</time>
      </trkpt>
      <trkpt lat="42.56471" lon="1.97858">
        <ele>2167.2261775967</ele>
        <time>2016-04-18T09:12:00Z</time>
      </trkpt>
      <trkpt lat="42.56471" lon="1.97857">
        <ele>2167.2261775967</ele>
        <time>2016-04-18T09:12:00Z</time>
      </trkpt>
      <trkpt lat="42.56462" lon="1.97822">
        <ele>2167.3660899339</ele>
        <time>2016-04-18T09:13:14Z</time>
      </trkpt>
      <trkpt lat="42.56461" lon="1.97819">
        <ele>2167.3660899339</ele>
        <time>2016-04-18T09:13:24Z</time>
      </trkpt>
      <trkpt lat="42.56461" lon="1.97828">
        <ele>2167.3660899339</ele>
        <time>2016-04-18T09:14:48Z</time>
      </trkpt>
      <trkpt lat="42.56458" lon="1.97829">
        <ele>2167.3939908241</ele>
        <time>2016-04-18T09:14:50Z</time>
      </trkpt>
      <trkpt lat="42.56446" lon="1.97828">
        <ele>2167.2925426135</ele>
        <time>2016-04-18T09:15:20Z</time>
      </trkpt>
      <trkpt lat="42.56425" lon="1.97829">
        <ele>2167.2189159888</ele>
        <time>2016-04-18T09:16:36Z</time>
      </trkpt>
      <trkpt lat="42.56428" lon="1.97831">
        <ele>2167.2189159888</ele>
        <time>2016-04-18T09:18:04Z</time>
      </trkpt>
      <trkpt lat="42.56464" lon="1.97809">
        <ele>2167.6645615776</ele>
        <time>2016-04-18T09:18:56Z</time>
      </trkpt>
      <trkpt lat="42.5644" lon="1.97699">
        <ele>2167.8432918695</ele>
        <time>2016-04-18T09:21:04Z</time>
      </trkpt>
      <trkpt lat="42.56444" lon="1.97695">
        <ele>2167.8432918695</ele>
        <time>2016-04-18T09:21:07Z</time>
      </trkpt>
      <trkpt lat="42.56458" lon="1.97678">
        <ele>2167.9644696612</ele>
        <time>2016-04-18T09:21:39Z</time>
      </trkpt>
      <trkpt lat="42.56458" lon="1.97656">
        <ele>2167.9337332863</ele>
        <time>2016-04-18T09:22:02Z</time>
      </trkpt>
      <trkpt lat="42.56466" lon="1.97635">
        <ele>2167.8369944644</ele>
        <time>2016-04-18T09:22:55Z</time>
      </trkpt>
      <trkpt lat="42.56478" lon="1.9763">
        <ele>2167.7971962713</ele>
        <time>2016-04-18T09:23:35Z</time>
      </trkpt>
      <trkpt lat="42.56481" lon="1.97622">
        <ele>2167.7971962713</ele>
        <time>2016-04-18T09:23:35Z</time>
      </trkpt>
      <trkpt lat="42.56483" lon="1.97579">
        <ele>2167.6251104774</ele>
        <time>2016-04-18T09:24:36Z</time>
      </trkpt>
      <trkpt lat="42.56493" lon="1.97565">
        <ele>2167.2754521363</ele>
        <time>2016-04-18T09:25:08Z</time>
      </trkpt>
      <trkpt lat="42.56512" lon="1.97555">
        <ele>2166.9951197024</ele>
        <time>2016-04-18T09:25:40Z</time>
      </trkpt>
      <trkpt lat="42.56518" lon="1.97536">
        <ele>2166.781787992</ele>
        <time>2016-04-18T09:26:05Z</time>
      </trkpt>
      <trkpt lat="42.56518" lon="1.97536">
        <ele>2166.781787992</ele>
        <time>2016-04-18T09:26:16Z</time>
      </trkpt>
      <trkpt lat="42.56527" lon="1.97522">
        <ele>2166.5031745496</ele>
        <time>2016-04-18T09:27:01Z</time>
      </trkpt>
      <trkpt lat="42.56531" lon="1.9752">
        <ele>2166.5031745496</ele>
        <time>2016-04-18T09:27:05Z</time>
      </trkpt>
      <trkpt lat="42.56538" lon="1.97518">
        <ele>2166.2531504846</ele>
        <time>2016-04-18T09:27:15Z</time>
      </trkpt>
      <trkpt lat="42.5655" lon="1.97509">
        <ele>2166.0030959574</ele>
        <time>2016-04-18T09:27:40Z</time>
      </trkpt>
      <trkpt lat="42.56553" lon="1.97507">
        <ele>2166.0030959574</ele>
        <time>2016-04-18T09:27:49Z</time>
      </trkpt>
      <trkpt lat="42.56567" lon="1.97489">
        <ele>2165.8706240651</ele>
        <time>2016-04-18T09:28:07Z</time>
      </trkpt>
      <trkpt lat="42.56569" lon="1.97487">
        <ele>2165.8706240651</ele>
        <time>2016-04-18T09:28:14Z</time>
      </trkpt>
      <trkpt lat="42.56573" lon="1.97486">
        <ele>2165.8706240651</ele>
        <time>2016-04-18T09:28:26Z</time>
      </trkpt>
      <trkpt lat="42.56578" lon="1.97478">
        <ele>2165.9786750647</ele>
        <time>2016-04-18T09:28:56Z</time>
      </trkpt>
      <trkpt lat="42.56577" lon="1.97465">
        <ele>2166.1230369856</ele>
        <time>2016-04-18T09:28:56Z</time>
      </trkpt>
      <trkpt lat="42.56575" lon="1.9745">
        <ele>2166.3450937165</ele>
        <time>2016-04-18T09:29:10Z</time>
      </trkpt>
      <trkpt lat="42.56577" lon="1.9742">
        <ele>2166.8126681779</ele>
        <time>2016-04-18T09:29:57Z</time>
      </trkpt>
      <trkpt lat="42.56576" lon="1.97414">
        <ele>2166.8126681779</ele>
        <time>2016-04-18T09:29:57Z</time>
      </trkpt>
      <trkpt lat="42.56575" lon="1.97406">
        <ele>2167.4352722756</ele>
        <time>2016-04-18T09:30:14Z</time>
      </trkpt>
      <trkpt lat="42.56576" lon="1.97402">
        <ele>2167.4352722756</ele>
        <time>2016-04-18T09:30:14Z</time>
      </trkpt>
      <trkpt lat="42.56578" lon="1.97397">
        <ele>2167.4352722756</ele>
        <time>2016-04-18T09:30:24Z</time>
      </trkpt>
      <trkpt lat="42.56589" lon="1.97382">
        <ele>2168.2871976687</ele>
        <time>2016-04-18T09:30:45Z</time>
      </trkpt>
      <trkpt lat="42.5659" lon="1.97382">
        <ele>2168.2871976687</ele>
        <time>2016-04-18T09:30:55Z</time>
      </trkpt>
      <trkpt lat="42.56596" lon="1.97363">
        <ele>2169.4365467555</ele>
        <time>2016-04-18T09:31:10Z</time>
      </trkpt>
      <trkpt lat="42.56604" lon="1.97356">
        <ele>2169.4365467555</ele>
        <time>2016-04-18T09:31:29Z</time>
      </trkpt>
      <trkpt lat="42.56629" lon="1.9731">
        <ele>2171.4213549409</ele>
        <time>2016-04-18T09:32:43Z</time>
      </trkpt>
      <trkpt lat="42.56645" lon="1.97294">
        <ele>2173.3822582052</ele>
        <time>2016-04-18T09:33:00Z</time>
      </trkpt>
      <trkpt lat="42.56669" lon="1.9723">
        <ele>2175.8785437912</ele>
        <time>2016-04-18T09:34:00Z</time>
      </trkpt>
      <trkpt lat="42.56672" lon="1.97192">
        <ele>2178.6049963965</ele>
        <time>2016-04-18T09:35:02Z</time>
      </trkpt>
      <trkpt lat="42.56673" lon="1.97189">
        <ele>2178.6049963965</ele>
        <time>2016-04-18T09:35:02Z</time>
      </trkpt>
      <trkpt lat="42.56673" lon="1.97186">
        <ele>2178.6049963965</ele>
        <time>2016-04-18T09:35:05Z</time>
      </trkpt>
      <trkpt lat="42.5667" lon="1.97137">
        <ele>2181.5233311228</ele>
        <time>2016-04-18T09:36:05Z</time>
      </trkpt>
      <trkpt lat="42.56669" lon="1.97129">
        <ele>2181.5233311228</ele>
        <time>2016-04-18T09:36:05Z</time>
      </trkpt>
      <trkpt lat="42.56672" lon="1.97114">
        <ele>2184.3957494714</ele>
        <time>2016-04-18T09:36:15Z</time>
      </trkpt>
      <trkpt lat="42.56673" lon="1.97113">
        <ele>2184.3957494714</ele>
        <time>2016-04-18T09:36:20Z</time>
      </trkpt>
      <trkpt lat="42.56674" lon="1.97111">
        <ele>2184.3957494714</ele>
        <time>2016-04-18T09:36:50Z</time>
      </trkpt>
      <trkpt lat="42.56677" lon="1.97105">
        <ele>2184.3957494714</ele>
        <time>2016-04-18T09:36:55Z</time>
      </trkpt>
      <trkpt lat="42.56679" lon="1.97072">
        <ele>2187.5643387592</ele>
        <time>2016-04-18T09:37:22Z</time>
      </trkpt>
      <trkpt lat="42.56687" lon="1.97059">
        <ele>2190.682155322</ele>
        <time>2016-04-18T09:37:35Z</time>
      </trkpt>
      <trkpt lat="42.56687" lon="1.97059">
        <ele>2190.682155322</ele>
        <time>2016-04-18T09:37:35Z</time>
      </trkpt>
      <trkpt lat="42.56684" lon="1.97024">
        <ele>2193.9613485044</ele>
        <time>2016-04-18T09:38:03Z</time>
      </trkpt>
      <trkpt lat="42.56684" lon="1.97022">
        <ele>2193.9613485044</ele>
        <time>2016-04-18T09:38:11Z</time>
      </trkpt>
      <trkpt lat="42.56684" lon="1.97013">
        <ele>2193.9613485044</ele>
        <time>2016-04-18T09:38:11Z</time>
      </trkpt>
      <trkpt lat="42.56681" lon="1.96999">
        <ele>2197.2089299042</ele>
        <time>2016-04-18T09:38:28Z</time>
      </trkpt>
      <trkpt lat="42.56681" lon="1.96993">
        <ele>2197.2089299042</ele>
        <time>2016-04-18T09:38:28Z</time>
      </trkpt>
      <trkpt lat="42.56682" lon="1.96993">
        <ele>2197.2089299042</ele>
        <time>2016-04-18T09:39:04Z</time>
      </trkpt>
      <trkpt lat="42.56684" lon="1.96986">
        <ele>2199.799502967</ele>
        <time>2016-04-18T09:39:20Z</time>
      </trkpt>
      <trkpt lat="42.56679" lon="1.96958">
        <ele>2202.0492480347</ele>
        <time>2016-04-18T09:39:40Z</time>
      </trkpt>
      <trkpt lat="42.56679" lon="1.96957">
        <ele>2202.0492480347</ele>
        <time>2016-04-18T09:39:40Z</time>
      </trkpt>
      <trkpt lat="42.56673" lon="1.96926">
        <ele>2203.978333253</ele>
        <time>2016-04-18T09:40:08Z</time>
      </trkpt>
      <trkpt lat="42.5667" lon="1.96914">
        <ele>2205.6208915154</ele>
        <time>2016-04-18T09:40:08Z</time>
      </trkpt>
      <trkpt lat="42.56669" lon="1.96911">
        <ele>2205.6208915154</ele>
        <time>2016-04-18T09:40:35Z</time>
      </trkpt>
      <trkpt lat="42.5667" lon="1.9691">
        <ele>2205.6208915154</ele>
        <time>2016-04-18T09:40:35Z</time>
      </trkpt>
      <trkpt lat="42.56671" lon="1.96882">
        <ele>2206.375356309</ele>
        <time>2016-04-18T09:41:32Z</time>
      </trkpt>
      <trkpt lat="42.56673" lon="1.9688">
        <ele>2206.375356309</ele>
        <time>2016-04-18T09:42:00Z</time>
      </trkpt>
      <trkpt lat="42.56676" lon="1.96876">
        <ele>2206.375356309</ele>
        <time>2016-04-18T09:42:05Z</time>
      </trkpt>
      <trkpt lat="42.56678" lon="1.96872">
        <ele>2206.6093674867</ele>
        <time>2016-04-18T09:42:10Z</time>
      </trkpt>
      <trkpt lat="42.56689" lon="1.96825">
        <ele>2206.7083564854</ele>
        <time>2016-04-18T09:43:05Z</time>
      </trkpt>
      <trkpt lat="42.56691" lon="1.96818">
        <ele>2206.7083564854</ele>
        <time>2016-04-18T09:43:45Z</time>
      </trkpt>
      <trkpt lat="42.56689" lon="1.96818">
        <ele>2206.7083564854</ele>
        <time>2016-04-18T09:43:55Z</time>
      </trkpt>
      <trkpt lat="42.5669" lon="1.96812">
        <ele>2206.4246346302</ele>
        <time>2016-04-18T09:44:31Z</time>
      </trkpt>
      <trkpt lat="42.56692" lon="1.96812">
        <ele>2206.4246346302</ele>
        <time>2016-04-18T09:46:20Z</time>
      </trkpt>
      <trkpt lat="42.56695" lon="1.96813">
        <ele>2206.4246346302</ele>
        <time>2016-04-18T09:46:25Z</time>
      </trkpt>
      <trkpt lat="42.56718" lon="1.96822">
        <ele>2205.501067595</ele>
        <time>2016-04-18T09:47:00Z</time>
      </trkpt>
      <trkpt lat="42.56735" lon="1.96827">
        <ele>2204.7821451581</ele>
        <time>2016-04-18T09:47:17Z</time>
      </trkpt>
      <trkpt lat="42.56758" lon="1.96839">
        <ele>2204.2427667356</ele>
        <time>2016-04-18T09:47:41Z</time>
      </trkpt>
      <trkpt lat="42.56765" lon="1.96842">
        <ele>2204.2427667356</ele>
        <time>2016-04-18T09:47:46Z</time>
      </trkpt>
      <trkpt lat="42.56769" lon="1.96844">
        <ele>2203.7295234306</ele>
        <time>2016-04-18T09:47:50Z</time>
      </trkpt>
      <trkpt lat="42.56779" lon="1.96846">
        <ele>2203.2731739299</ele>
        <time>2016-04-18T09:48:08Z</time>
      </trkpt>
      <trkpt lat="42.56794" lon="1.9685">
        <ele>2202.8156105848</ele>
        <time>2016-04-18T09:48:28Z</time>
      </trkpt>
      <trkpt lat="42.56805" lon="1.96853">
        <ele>2202.3606499872</ele>
        <time>2016-04-18T09:48:28Z</time>
      </trkpt>
      <trkpt lat="42.56808" lon="1.96853">
        <ele>2202.3606499872</ele>
        <time>2016-04-18T09:48:45Z</time>
      </trkpt>
      <trkpt lat="42.56824" lon="1.96861">
        <ele>2201.5371224391</ele>
        <time>2016-04-18T09:49:02Z</time>
      </trkpt>
      <trkpt lat="42.56925" lon="1.96836">
        <ele>2198.6330624373</ele>
        <time>2016-04-18T10:00:38Z</time>
      </trkpt>
      <trkpt lat="42.56926" lon="1.96835">
        <ele>2198.6330624373</ele>
        <time>2016-04-18T10:00:41Z</time>
      </trkpt>
      <trkpt lat="42.56944" lon="1.96828">
        <ele>2195.9879331709</ele>
        <time>2016-04-18T10:01:47Z</time>
      </trkpt>
      <trkpt lat="42.56987" lon="1.96811">
        <ele>2193.7509799428</ele>
        <time>2016-04-18T10:02:37Z</time>
      </trkpt>
      <trkpt lat="42.57012" lon="1.96808">
        <ele>2191.8575014412</ele>
        <time>2016-04-18T10:03:07Z</time>
      </trkpt>
      <trkpt lat="42.57048" lon="1.96803">
        <ele>2190.1600170586</ele>
        <time>2016-04-18T10:03:59Z</time>
      </trkpt>
      <trkpt lat="42.57056" lon="1.96805">
        <ele>2190.1600170586</ele>
        <time>2016-04-18T10:04:00Z</time>
      </trkpt>
      <trkpt lat="42.57065" lon="1.96802">
        <ele>2188.8238538519</ele>
        <time>2016-04-18T10:04:24Z</time>
      </trkpt>
      <trkpt lat="42.57083" lon="1.96799">
        <ele>2187.6263563089</ele>
        <time>2016-04-18T10:04:39Z</time>
      </trkpt>
      <trkpt lat="42.57083" lon="1.968">
        <ele>2187.6263563089</ele>
        <time>2016-04-18T10:04:40Z</time>
      </trkpt>
      <trkpt lat="42.57085" lon="1.968">
        <ele>2187.6263563089</ele>
        <time>2016-04-18T10:04:45Z</time>
      </trkpt>
      <trkpt lat="42.57095" lon="1.96797">
        <ele>2186.4615799531</ele>
        <time>2016-04-18T10:04:58Z</time>
      </trkpt>
      <trkpt lat="42.57098" lon="1.96796">
        <ele>2186.4615799531</ele>
        <time>2016-04-18T10:05:00Z</time>
      </trkpt>
      <trkpt lat="42.57195" lon="1.96823">
        <ele>2187.248738564</ele>
        <time>2016-04-18T10:08:25Z</time>
      </trkpt>
      <trkpt lat="42.57216" lon="1.96818">
        <ele>2188.2008143152</ele>
        <time>2016-04-18T10:08:45Z</time>
      </trkpt>
      <trkpt lat="42.5729" lon="1.96846">
        <ele>2189.8520158824</ele>
        <time>2016-04-18T10:10:18Z</time>
      </trkpt>
      <trkpt lat="42.57292" lon="1.96858">
        <ele>2191.6864274849</ele>
        <time>2016-04-18T10:10:25Z</time>
      </trkpt>
      <trkpt lat="42.57298" lon="1.96872">
        <ele>2193.6145306198</ele>
        <time>2016-04-18T10:10:58Z</time>
      </trkpt>
      <trkpt lat="42.57301" lon="1.96871">
        <ele>2193.6145306198</ele>
        <time>2016-04-18T10:11:00Z</time>
      </trkpt>
      <trkpt lat="42.57302" lon="1.96871">
        <ele>2193.6145306198</ele>
        <time>2016-04-18T10:11:05Z</time>
      </trkpt>
      <trkpt lat="42.57299" lon="1.96875">
        <ele>2193.6145306198</ele>
        <time>2016-04-18T10:11:30Z</time>
      </trkpt>
      <trkpt lat="42.57303" lon="1.96888">
        <ele>2196.4321417129</ele>
        <time>2016-04-18T10:11:49Z</time>
      </trkpt>
      <trkpt lat="42.57305" lon="1.96891">
        <ele>2196.4321417129</ele>
        <time>2016-04-18T10:11:53Z</time>
      </trkpt>
      <trkpt lat="42.57304" lon="1.96896">
        <ele>2196.4321417129</ele>
        <time>2016-04-18T10:12:42Z</time>
      </trkpt>
      <trkpt lat="42.57303" lon="1.96899">
        <ele>2199.0726279112</ele>
        <time>2016-04-18T10:12:45Z</time>
      </trkpt>
      <trkpt lat="42.573" lon="1.96908">
        <ele>2199.0726279112</ele>
        <time>2016-04-18T10:13:05Z</time>
      </trkpt>
      <trkpt lat="42.57293" lon="1.9694">
        <ele>2201.5425661137</ele>
        <time>2016-04-18T10:13:31Z</time>
      </trkpt>
      <trkpt lat="42.57284" lon="1.96974">
        <ele>2203.8485135436</ele>
        <time>2016-04-18T10:14:00Z</time>
      </trkpt>
      <trkpt lat="42.57284" lon="1.97027">
        <ele>2205.9393642202</ele>
        <time>2016-04-18T10:14:48Z</time>
      </trkpt>
      <trkpt lat="42.57288" lon="1.97022">
        <ele>2205.9393642202</ele>
        <time>2016-04-18T10:15:15Z</time>
      </trkpt>
      <trkpt lat="42.57288" lon="1.97026">
        <ele>2205.9393642202</ele>
        <time>2016-04-18T10:15:20Z</time>
      </trkpt>
      <trkpt lat="42.57333" lon="1.97114">
        <ele>2207.869270204</ele>
        <time>2016-04-18T10:16:40Z</time>
      </trkpt>
      <trkpt lat="42.57334" lon="1.9712">
        <ele>2207.869270204</ele>
        <time>2016-04-18T10:16:49Z</time>
      </trkpt>
      <trkpt lat="42.57358" lon="1.9718">
        <ele>2209.3286053372</ele>
        <time>2016-04-18T10:17:46Z</time>
      </trkpt>
      <trkpt lat="42.5736" lon="1.97184">
        <ele>2209.3286053372</ele>
        <time>2016-04-18T10:17:46Z</time>
      </trkpt>
      <trkpt lat="42.57369" lon="1.97189">
        <ele>2210.6803647432</ele>
        <time>2016-04-18T10:18:03Z</time>
      </trkpt>
      <trkpt lat="42.5739" lon="1.97209">
        <ele>2211.8721216149</ele>
        <time>2016-04-18T10:20:02Z</time>
      </trkpt>
      <trkpt lat="42.57384" lon="1.97283">
        <ele>2214.3257613171</ele>
        <time>2016-04-18T10:20:41Z</time>
      </trkpt>
      <trkpt lat="42.57377" lon="1.97399">
        <ele>2216.9053131172</ele>
        <time>2016-04-18T10:22:52Z</time>
      </trkpt>
      <trkpt lat="42.57371" lon="1.97419">
        <ele>2219.1776646276</ele>
        <time>2016-04-18T10:23:11Z</time>
      </trkpt>
      <trkpt lat="42.5737" lon="1.97426">
        <ele>2219.1776646276</ele>
        <time>2016-04-18T10:23:12Z</time>
      </trkpt>
      <trkpt lat="42.57364" lon="1.97444">
        <ele>2221.2324478264</ele>
        <time>2016-04-18T10:23:36Z</time>
      </trkpt>
      <trkpt lat="42.57363" lon="1.97447">
        <ele>2221.2324478264</ele>
        <time>2016-04-18T10:23:39Z</time>
      </trkpt>
      <trkpt lat="42.57362" lon="1.97454">
        <ele>2221.2324478264</ele>
        <time>2016-04-18T10:24:08Z</time>
      </trkpt>
      <trkpt lat="42.57356" lon="1.97462">
        <ele>2223.6001595499</ele>
        <time>2016-04-18T10:24:10Z</time>
      </trkpt>
      <trkpt lat="42.57354" lon="1.97468">
        <ele>2223.6001595499</ele>
        <time>2016-04-18T10:24:20Z</time>
      </trkpt>
      <trkpt lat="42.5735" lon="1.97472">
        <ele>2223.6001595499</ele>
        <time>2016-04-18T10:24:25Z</time>
      </trkpt>
      <trkpt lat="42.57346" lon="1.97475">
        <ele>2226.0798065108</ele>
        <time>2016-04-18T10:24:30Z</time>
      </trkpt>
      <trkpt lat="42.57321" lon="1.97512">
        <ele>2228.6434772309</ele>
        <time>2016-04-18T10:25:25Z</time>
      </trkpt>
      <trkpt lat="42.57316" lon="1.97523">
        <ele>2230.96255341</ele>
        <time>2016-04-18T10:25:25Z</time>
      </trkpt>
      <trkpt lat="42.57308" lon="1.9754">
        <ele>2233.0792322884</ele>
        <time>2016-04-18T10:25:49Z</time>
      </trkpt>
      <trkpt lat="42.57261" lon="1.97635">
        <ele>2233.5777720532</ele>
        <time>2016-04-18T10:27:17Z</time>
      </trkpt>
      <trkpt lat="42.57256" lon="1.97639">
        <ele>2233.5777720532</ele>
        <time>2016-04-18T10:27:17Z</time>
      </trkpt>
      <trkpt lat="42.57253" lon="1.97638">
        <ele>2233.5777720532</ele>
        <time>2016-04-18T10:27:33Z</time>
      </trkpt>
      <trkpt lat="42.57249" lon="1.97653">
        <ele>2232.5633851756</ele>
        <time>2016-04-18T10:27:59Z</time>
      </trkpt>
      <trkpt lat="42.57246" lon="1.97654">
        <ele>2232.5633851756</ele>
        <time>2016-04-18T10:27:59Z</time>
      </trkpt>
      <trkpt lat="42.57244" lon="1.97658">
        <ele>2232.5633851756</ele>
        <time>2016-04-18T10:28:09Z</time>
      </trkpt>
      <trkpt lat="42.57242" lon="1.9766">
        <ele>2232.5633851756</ele>
        <time>2016-04-18T10:28:15Z</time>
      </trkpt>
      <trkpt lat="42.57235" lon="1.97674">
        <ele>2230.6711172171</ele>
        <time>2016-04-18T10:28:29Z</time>
      </trkpt>
      <trkpt lat="42.57222" lon="1.97705">
        <ele>2227.8722306329</ele>
        <time>2016-04-18T10:29:04Z</time>
      </trkpt>
      <trkpt lat="42.57217" lon="1.97715">
        <ele>2224.9929571252</ele>
        <time>2016-04-18T10:29:09Z</time>
      </trkpt>
      <trkpt lat="42.57211" lon="1.97724">
        <ele>2224.9929571252</ele>
        <time>2016-04-18T10:29:17Z</time>
      </trkpt>
      <trkpt lat="42.57209" lon="1.97727">
        <ele>2221.9920606026</ele>
        <time>2016-04-18T10:29:25Z</time>
      </trkpt>
      <trkpt lat="42.57159" lon="1.97801">
        <ele>2216.5979394852</ele>
        <time>2016-04-18T10:31:06Z</time>
      </trkpt>
      <trkpt lat="42.57142" lon="1.97827">
        <ele>2211.2808565069</ele>
        <time>2016-04-18T10:31:06Z</time>
      </trkpt>
      <trkpt lat="42.5708" lon="1.97878">
        <ele>2204.7265185833</ele>
        <time>2016-04-18T10:32:38Z</time>
      </trkpt>
      <trkpt lat="42.57069" lon="1.97893">
        <ele>2198.5595052832</ele>
        <time>2016-04-18T10:33:05Z</time>
      </trkpt>
      <trkpt lat="42.57065" lon="1.97897">
        <ele>2198.5595052832</ele>
        <time>2016-04-18T10:33:09Z</time>
      </trkpt>
      <trkpt lat="42.57052" lon="1.97909">
        <ele>2192.6841504802</ele>
        <time>2016-04-18T10:33:23Z</time>
      </trkpt>
      <trkpt lat="42.57044" lon="1.97914">
        <ele>2192.6841504802</ele>
        <time>2016-04-18T10:33:30Z</time>
      </trkpt>
      <trkpt lat="42.57023" lon="1.97932">
        <ele>2187.2269388531</ele>
        <time>2016-04-18T10:34:03Z</time>
      </trkpt>
      <trkpt lat="42.5702" lon="1.97934">
        <ele>2187.2269388531</ele>
        <time>2016-04-18T10:35:02Z</time>
      </trkpt>
      <trkpt lat="42.56966" lon="1.97961">
        <ele>2182.3036279068</ele>
        <time>2016-04-18T10:35:27Z</time>
      </trkpt>
      <trkpt lat="42.5696" lon="1.97964">
        <ele>2182.3036279068</ele>
        <time>2016-04-18T10:35:27Z</time>
      </trkpt>
      <trkpt lat="42.5694" lon="1.97976">
        <ele>2177.6305805508</ele>
        <time>2016-04-18T10:36:05Z</time>
      </trkpt>
      <trkpt lat="42.56936" lon="1.97978">
        <ele>2177.6305805508</ele>
        <time>2016-04-18T10:36:05Z</time>
      </trkpt>
      <trkpt lat="42.56925" lon="1.97994">
        <ele>2173.3907212283</ele>
        <time>2016-04-18T10:36:27Z</time>
      </trkpt>
      <trkpt lat="42.56922" lon="1.97999">
        <ele>2173.3907212283</ele>
        <time>2016-04-18T10:36:27Z</time>
      </trkpt>
      <trkpt lat="42.56918" lon="1.98008">
        <ele>2169.5934647877</ele>
        <time>2016-04-18T10:36:36Z</time>
      </trkpt>
      <trkpt lat="42.56869" lon="1.9808">
        <ele>2166.0297793897</ele>
        <time>2016-04-18T10:38:00Z</time>
      </trkpt>
      <trkpt lat="42.56853" lon="1.98093">
        <ele>2162.894080019</ele>
        <time>2016-04-18T10:38:28Z</time>
      </trkpt>
      <trkpt lat="42.56847" lon="1.98096">
        <ele>2162.894080019</ele>
        <time>2016-04-18T10:38:45Z</time>
      </trkpt>
      <trkpt lat="42.56834" lon="1.98104">
        <ele>2159.9326096587</ele>
        <time>2016-04-18T10:38:45Z</time>
      </trkpt>
      <trkpt lat="42.56801" lon="1.98142">
        <ele>2157.1976310426</ele>
        <time>2016-04-18T10:40:11Z</time>
      </trkpt>
      <trkpt lat="42.56803" lon="1.98146">
        <ele>2157.1976310426</ele>
        <time>2016-04-18T10:40:35Z</time>
      </trkpt>
      <trkpt lat="42.56771" lon="1.98159">
        <ele>2154.90951598</ele>
        <time>2016-04-18T10:41:21Z</time>
      </trkpt>
      <trkpt lat="42.56742" lon="1.98193">
        <ele>2152.9538078965</ele>
        <time>2016-04-18T10:42:12Z</time>
      </trkpt>
      <trkpt lat="42.56739" lon="1.98198">
        <ele>2152.9538078965</ele>
        <time>2016-04-18T10:42:12Z</time>
      </trkpt>
      <trkpt lat="42.56733" lon="1.98202">
        <ele>2151.3961287613</ele>
        <time>2016-04-18T10:42:28Z</time>
      </trkpt>
      <trkpt lat="42.56719" lon="1.98225">
        <ele>2150.0508581533</ele>
        <time>2016-04-18T10:43:11Z</time>
      </trkpt>
      <trkpt lat="42.56709" lon="1.98236">
        <ele>2148.9324607587</ele>
        <time>2016-04-18T10:43:25Z</time>
      </trkpt>
      <trkpt lat="42.56705" lon="1.98238">
        <ele>2148.9324607587</ele>
        <time>2016-04-18T10:43:25Z</time>
      </trkpt>
      <trkpt lat="42.56694" lon="1.98242">
        <ele>2147.9237215765</ele>
        <time>2016-04-18T10:43:55Z</time>
      </trkpt>
      <trkpt lat="42.56684" lon="1.98247">
        <ele>2147.0739903468</ele>
        <time>2016-04-18T10:44:10Z</time>
      </trkpt>
      <trkpt lat="42.5667" lon="1.98257">
        <ele>2146.3994834307</ele>
        <time>2016-04-18T10:44:35Z</time>
      </trkpt>
      <trkpt lat="42.56662" lon="1.98261">
        <ele>2145.727170841</ele>
        <time>2016-04-18T10:45:00Z</time>
      </trkpt>
      <trkpt lat="42.56651" lon="1.98264">
        <ele>2145.0406403102</ele>
        <time>2016-04-18T10:45:29Z</time>
      </trkpt>
      <trkpt lat="42.56585" lon="1.98287">
        <ele>2143.9066239743</ele>
        <time>2016-04-18T10:46:52Z</time>
      </trkpt>
      <trkpt lat="42.56561" lon="1.98298">
        <ele>2142.5876881966</ele>
        <time>2016-04-18T10:47:39Z</time>
      </trkpt>
      <trkpt lat="42.56563" lon="1.98298">
        <ele>2142.5876881966</ele>
        <time>2016-04-18T10:48:07Z</time>
      </trkpt>
      <trkpt lat="42.56553" lon="1.98313">
        <ele>2140.6213391776</ele>
        <time>2016-04-18T10:48:40Z</time>
      </trkpt>
      <trkpt lat="42.56545" lon="1.98323">
        <ele>2138.8489192966</ele>
        <time>2016-04-18T10:49:00Z</time>
      </trkpt>
      <trkpt lat="42.56532" lon="1.98344">
        <ele>2137.2134534026</ele>
        <time>2016-04-18T10:49:13Z</time>
      </trkpt>
      <trkpt lat="42.56517" lon="1.98365">
        <ele>2135.748119444</ele>
        <time>2016-04-18T10:49:44Z</time>
      </trkpt>
      <trkpt lat="42.56509" lon="1.9838">
        <ele>2134.4686637868</ele>
        <time>2016-04-18T10:50:04Z</time>
      </trkpt>
      <trkpt lat="42.56487" lon="1.98414">
        <ele>2133.2161249051</ele>
        <time>2016-04-18T10:50:40Z</time>
      </trkpt>
      <trkpt lat="42.56475" lon="1.98434">
        <ele>2132.0015793447</ele>
        <time>2016-04-18T10:51:17Z</time>
      </trkpt>
      <trkpt lat="42.56471" lon="1.98459">
        <ele>2130.8639302021</ele>
        <time>2016-04-18T10:51:36Z</time>
      </trkpt>
      <trkpt lat="42.56472" lon="1.9846">
        <ele>2130.8639302021</ele>
        <time>2016-04-18T10:51:36Z</time>
      </trkpt>
      <trkpt lat="42.56468" lon="1.9848">
        <ele>2129.8245311544</ele>
        <time>2016-04-18T10:52:06Z</time>
      </trkpt>
      <trkpt lat="42.56465" lon="1.98487">
        <ele>2129.8245311544</ele>
        <time>2016-04-18T10:52:06Z</time>
      </trkpt>
      <trkpt lat="42.56462" lon="1.98494">
        <ele>2128.9893043661</ele>
        <time>2016-04-18T10:52:30Z</time>
      </trkpt>
      <trkpt lat="42.56437" lon="1.98513">
        <ele>2128.1387304153</ele>
        <time>2016-04-18T10:54:05Z</time>
      </trkpt>
      <trkpt lat="42.56434" lon="1.98517">
        <ele>2128.1387304153</ele>
        <time>2016-04-18T10:54:06Z</time>
      </trkpt>
      <trkpt lat="42.56428" lon="1.98531">
        <ele>2127.3864711304</ele>
        <time>2016-04-18T10:54:44Z</time>
      </trkpt>
      <trkpt lat="42.56425" lon="1.98552">
        <ele>2126.7510751275</ele>
        <time>2016-04-18T10:54:57Z</time>
      </trkpt>
      <trkpt lat="42.56424" lon="1.98555">
        <ele>2126.7510751275</ele>
        <time>2016-04-18T10:55:00Z</time>
      </trkpt>
      <trkpt lat="42.56419" lon="1.98562">
        <ele>2126.2349794499</ele>
        <time>2016-04-18T10:55:13Z</time>
      </trkpt>
      <trkpt lat="42.56417" lon="1.98577">
        <ele>2125.7392304703</ele>
        <time>2016-04-18T10:55:50Z</time>
      </trkpt>
      <trkpt lat="42.56405" lon="1.98584">
        <ele>2125.402676292</ele>
        <time>2016-04-18T10:56:07Z</time>
      </trkpt>
      <trkpt lat="42.56379" lon="1.98598">
        <ele>2125.1661969605</ele>
        <time>2016-04-18T10:56:40Z</time>
      </trkpt>
      <trkpt lat="42.56378" lon="1.98598">
        <ele>2125.1661969605</ele>
        <time>2016-04-18T10:56:41Z</time>
      </trkpt>
      <trkpt lat="42.56377" lon="1.98596">
        <ele>2125.1661969605</ele>
        <time>2016-04-18T10:57:11Z</time>
      </trkpt>
      <trkpt lat="42.56362" lon="1.9862">
        <ele>2124.9747682508</ele>
        <time>2016-04-18T10:57:42Z</time>
      </trkpt>
      <trkpt lat="42.56344" lon="1.98637">
        <ele>2124.8349701777</ele>
        <time>2016-04-18T10:58:08Z</time>
      </trkpt>
      <trkpt lat="42.56337" lon="1.98654">
        <ele>2124.7095755188</ele>
        <time>2016-04-18T10:58:30Z</time>
      </trkpt>
      <trkpt lat="42.56338" lon="1.98657">
        <ele>2124.7095755188</ele>
        <time>2016-04-18T10:58:52Z</time>
      </trkpt>
      <trkpt lat="42.56336" lon="1.9867">
        <ele>2124.4632372508</ele>
        <time>2016-04-18T10:59:09Z</time>
      </trkpt>
      <trkpt lat="42.56332" lon="1.9868">
        <ele>2124.4632372508</ele>
        <time>2016-04-18T10:59:09Z</time>
      </trkpt>
      <trkpt lat="42.56329" lon="1.98687">
        <ele>2124.0718399851</ele>
        <time>2016-04-18T10:59:42Z</time>
      </trkpt>
      <trkpt lat="42.56318" lon="1.98706">
        <ele>2123.5855812942</ele>
        <time>2016-04-18T11:00:07Z</time>
      </trkpt>
      <trkpt lat="42.56279" lon="1.98728">
        <ele>2123.0801440317</ele>
        <time>2016-04-18T11:01:00Z</time>
      </trkpt>
      <trkpt lat="42.56268" lon="1.98742">
        <ele>2122.5825604451</ele>
        <time>2016-04-18T11:01:16Z</time>
      </trkpt>
      <trkpt lat="42.56268" lon="1.98746">
        <ele>2122.5825604451</ele>
        <time>2016-04-18T11:01:25Z</time>
      </trkpt>
      <trkpt lat="42.56244" lon="1.98787">
        <ele>2121.7288459116</ele>
        <time>2016-04-18T11:02:18Z</time>
      </trkpt>
      <trkpt lat="42.56241" lon="1.98788">
        <ele>2121.7288459116</ele>
        <time>2016-04-18T11:02:18Z</time>
      </trkpt>
      <trkpt lat="42.56237" lon="1.98795">
        <ele>2120.8313456527</ele>
        <time>2016-04-18T11:02:30Z</time>
      </trkpt>
      <trkpt lat="42.56221" lon="1.98816">
        <ele>2119.7329306622</ele>
        <time>2016-04-18T11:03:03Z</time>
      </trkpt>
      <trkpt lat="42.56214" lon="1.9882">
        <ele>2119.7329306622</ele>
        <time>2016-04-18T11:03:10Z</time>
      </trkpt>
      <trkpt lat="42.56192" lon="1.98848">
        <ele>2118.3463128816</ele>
        <time>2016-04-18T11:03:52Z</time>
      </trkpt>
      <trkpt lat="42.56189" lon="1.98855">
        <ele>2118.3463128816</ele>
        <time>2016-04-18T11:03:52Z</time>
      </trkpt>
      <trkpt lat="42.56184" lon="1.9886">
        <ele>2117.0094341005</ele>
        <time>2016-04-18T11:04:09Z</time>
      </trkpt>
      <trkpt lat="42.56138" lon="1.98917">
        <ele>2114.9256967196</ele>
        <time>2016-04-18T11:05:15Z</time>
      </trkpt>
      <trkpt lat="42.56138" lon="1.98916">
        <ele>2114.9256967196</ele>
        <time>2016-04-18T11:05:20Z</time>
      </trkpt>
      <trkpt lat="42.56112" lon="1.98963">
        <ele>2112.3679671219</ele>
        <time>2016-04-18T11:06:53Z</time>
      </trkpt>
      <trkpt lat="42.56101" lon="1.98968">
        <ele>2109.878682138</ele>
        <time>2016-04-18T11:06:53Z</time>
      </trkpt>
      <trkpt lat="42.56098" lon="1.98977">
        <ele>2109.878682138</ele>
        <time>2016-04-18T11:07:00Z</time>
      </trkpt>
      <trkpt lat="42.56073" lon="1.99014">
        <ele>2107.4414906523</ele>
        <time>2016-04-18T11:07:46Z</time>
      </trkpt>
      <trkpt lat="42.56067" lon="1.9902">
        <ele>2107.4414906523</ele>
        <time>2016-04-18T11:07:48Z</time>
      </trkpt>
      <trkpt lat="42.56046" lon="1.99053">
        <ele>2105.0555464305</ele>
        <time>2016-04-18T11:08:34Z</time>
      </trkpt>
      <trkpt lat="42.56041" lon="1.9906">
        <ele>2105.0555464305</ele>
        <time>2016-04-18T11:08:34Z</time>
      </trkpt>
      <trkpt lat="42.56025" lon="1.99101">
        <ele>2102.0858581557</ele>
        <time>2016-04-18T11:09:30Z</time>
      </trkpt>
      <trkpt lat="42.56023" lon="1.99109">
        <ele>2102.0858581557</ele>
        <time>2016-04-18T11:09:38Z</time>
      </trkpt>
      <trkpt lat="42.5602" lon="1.99114">
        <ele>2099.2283207692</ele>
        <time>2016-04-18T11:09:45Z</time>
      </trkpt>
      <trkpt lat="42.55993" lon="1.99239">
        <ele>2096.0177387131</ele>
        <time>2016-04-18T11:11:52Z</time>
      </trkpt>
      <trkpt lat="42.55994" lon="1.99246">
        <ele>2096.0177387131</ele>
        <time>2016-04-18T11:11:52Z</time>
      </trkpt>
      <trkpt lat="42.55998" lon="1.99327">
        <ele>2092.6581554616</ele>
        <time>2016-04-18T11:13:25Z</time>
      </trkpt>
      <trkpt lat="42.55999" lon="1.99339">
        <ele>2089.1804935177</ele>
        <time>2016-04-18T11:13:25Z</time>
      </trkpt>
      <trkpt lat="42.56006" lon="1.99354">
        <ele>2086.0027938843</ele>
        <time>2016-04-18T11:13:40Z</time>
      </trkpt>
      <trkpt lat="42.56008" lon="1.99358">
        <ele>2086.0027938843</ele>
        <time>2016-04-18T11:13:41Z</time>
      </trkpt>
      <trkpt lat="42.56012" lon="1.994">
        <ele>2081.421878244</ele>
        <time>2016-04-18T11:14:40Z</time>
      </trkpt>
      <trkpt lat="42.56015" lon="1.99408">
        <ele>2081.421878244</ele>
        <time>2016-04-18T11:14:43Z</time>
      </trkpt>
      <trkpt lat="42.56014" lon="1.99413">
        <ele>2077.1204594294</ele>
        <time>2016-04-18T11:15:00Z</time>
      </trkpt>
      <trkpt lat="42.56029" lon="1.99436">
        <ele>2072.2068759426</ele>
        <time>2016-04-18T11:16:03Z</time>
      </trkpt>
      <trkpt lat="42.56023" lon="1.99433">
        <ele>2072.2068759426</ele>
        <time>2016-04-18T11:16:03Z</time>
      </trkpt>
      <trkpt lat="42.56028" lon="1.99488">
        <ele>2066.7932988016</ele>
        <time>2016-04-18T11:17:33Z</time>
      </trkpt>
      <trkpt lat="42.56025" lon="1.99493">
        <ele>2066.7932988016</ele>
        <time>2016-04-18T11:17:33Z</time>
      </trkpt>
      <trkpt lat="42.56022" lon="1.99501">
        <ele>2061.9360674716</ele>
        <time>2016-04-18T11:17:40Z</time>
      </trkpt>
      <trkpt lat="42.55998" lon="1.99633">
        <ele>2055.8885127761</ele>
        <time>2016-04-18T11:19:40Z</time>
      </trkpt>
      <trkpt lat="42.55997" lon="1.99632">
        <ele>2055.8885127761</ele>
        <time>2016-04-18T11:19:45Z</time>
      </trkpt>
      <trkpt lat="42.55988" lon="1.99646">
        <ele>2049.6150336986</ele>
        <time>2016-04-18T11:20:07Z</time>
      </trkpt>
      <trkpt lat="42.55979" lon="1.99721">
        <ele>2042.3523467224</ele>
        <time>2016-04-18T11:21:09Z</time>
      </trkpt>
      <trkpt lat="42.55983" lon="1.99734">
        <ele>2035.8456867961</ele>
        <time>2016-04-18T11:21:15Z</time>
      </trkpt>
      <trkpt lat="42.5599" lon="1.99735">
        <ele>2035.8456867961</ele>
        <time>2016-04-18T11:21:20Z</time>
      </trkpt>
      <trkpt lat="42.55994" lon="1.99737">
        <ele>2029.9083348665</ele>
        <time>2016-04-18T11:21:25Z</time>
      </trkpt>
      <trkpt lat="42.56" lon="1.99738">
        <ele>2029.9083348665</ele>
        <time>2016-04-18T11:21:30Z</time>
      </trkpt>
      <trkpt lat="42.56004" lon="1.99739">
        <ele>2024.6968881522</ele>
        <time>2016-04-18T11:21:35Z</time>
      </trkpt>
      <trkpt lat="42.56007" lon="1.9974">
        <ele>2024.6968881522</ele>
        <time>2016-04-18T11:21:40Z</time>
      </trkpt>
    </trkseg>
  </trk>
</gpx>